sensor_id;sensor_type;location;lat;lon;timestamp;P1;durP1;ratioP1;P2;durP2;ratioP2
12129;SDS011;6128;59.340;18.040;2023-08-08T00:01:33;2.00;;;0.80;;
12129;SDS011;6128;59.340;18.040;2023-08-08T00:04:00;2.37;;;0.43;;
12129;SDS011;6128;59.340;18.040;2023-08-08T00:06:27;3.17;;;0.60;;
12129;SDS011;6128;59.340;18.040;2023-08-08T00:08:56;2.47;;;0.40;;
12129;SDS011;6128;59.340;18.040;2023-08-08T00:11:23;1.73;;;0.57;;
12129;SDS011;6128;59.340;18.040;2023-08-08T00:13:50;2.83;;;0.67;;
12129;SDS011;6128;59.340;18.040;2023-08-08T00:16:17;2.00;;;0.70;;
12129;SDS011;6128;59.340;18.040;2023-08-08T00:18:44;2.83;;;0.67;;
12129;SDS011;6128;59.340;18.040;2023-08-08T00:21:11;1.80;;;0.60;;
12129;SDS011;6128;59.340;18.040;2023-08-08T00:23:38;1.70;;;0.40;;
12129;SDS011;6128;59.340;18.040;2023-08-08T00:26:07;1.90;;;0.57;;
12129;SDS011;6128;59.340;18.040;2023-08-08T00:28:34;1.27;;;0.40;;
12129;SDS011;6128;59.340;18.040;2023-08-08T00:31:01;2.33;;;0.57;;
12129;SDS011;6128;59.340;18.040;2023-08-08T00:33:29;3.07;;;0.40;;
12129;SDS011;6128;59.340;18.040;2023-08-08T00:35:56;2.60;;;0.90;;
12129;SDS011;6128;59.340;18.040;2023-08-08T00:38:23;1.90;;;0.60;;
12129;SDS011;6128;59.340;18.040;2023-08-08T00:40:50;2.43;;;0.73;;
12129;SDS011;6128;59.340;18.040;2023-08-08T00:43:18;1.40;;;0.57;;
12129;SDS011;6128;59.340;18.040;2023-08-08T00:45:45;3.60;;;0.60;;
12129;SDS011;6128;59.340;18.040;2023-08-08T00:48:12;3.00;;;0.90;;
12129;SDS011;6128;59.340;18.040;2023-08-08T00:50:42;2.20;;;0.60;;
12129;SDS011;6128;59.340;18.040;2023-08-08T00:53:09;2.37;;;0.67;;
12129;SDS011;6128;59.340;18.040;2023-08-08T00:55:37;2.10;;;0.60;;
12129;SDS011;6128;59.340;18.040;2023-08-08T00:58:04;2.10;;;0.67;;
12129;SDS011;6128;59.340;18.040;2023-08-08T01:00:34;2.27;;;0.80;;
12129;SDS011;6128;59.340;18.040;2023-08-08T01:03:01;3.13;;;0.80;;
12129;SDS011;6128;59.340;18.040;2023-08-08T01:05:30;2.93;;;0.53;;
12129;SDS011;6128;59.340;18.040;2023-08-08T01:08:02;2.90;;;0.80;;
12129;SDS011;6128;59.340;18.040;2023-08-08T01:10:32;3.63;;;1.10;;
12129;SDS011;6128;59.340;18.040;2023-08-08T01:13:02;3.20;;;0.93;;
12129;SDS011;6128;59.340;18.040;2023-08-08T01:15:32;2.93;;;0.70;;
12129;SDS011;6128;59.340;18.040;2023-08-08T01:18:02;2.27;;;0.63;;
12129;SDS011;6128;59.340;18.040;2023-08-08T01:20:31;1.93;;;0.50;;
12129;SDS011;6128;59.340;18.040;2023-08-08T01:22:59;2.80;;;0.90;;
12129;SDS011;6128;59.340;18.040;2023-08-08T01:25:34;2.07;;;0.70;;
12129;SDS011;6128;59.340;18.040;2023-08-08T01:28:01;1.90;;;0.60;;
12129;SDS011;6128;59.340;18.040;2023-08-08T01:30:30;1.47;;;0.50;;
12129;SDS011;6128;59.340;18.040;2023-08-08T01:32:57;2.23;;;0.70;;
12129;SDS011;6128;59.340;18.040;2023-08-08T01:35:25;2.10;;;0.60;;
12129;SDS011;6128;59.340;18.040;2023-08-08T01:37:57;1.70;;;0.50;;
12129;SDS011;6128;59.340;18.040;2023-08-08T01:40:31;2.20;;;1.00;;
12129;SDS011;6128;59.340;18.040;2023-08-08T01:43:01;2.20;;;0.70;;
12129;SDS011;6128;59.340;18.040;2023-08-08T01:45:30;3.53;;;0.63;;
12129;SDS011;6128;59.340;18.040;2023-08-08T01:47:57;2.57;;;0.80;;
12129;SDS011;6128;59.340;18.040;2023-08-08T01:50:24;1.80;;;0.50;;
12129;SDS011;6128;59.340;18.040;2023-08-08T01:52:51;2.33;;;0.70;;
12129;SDS011;6128;59.340;18.040;2023-08-08T01:55:18;4.03;;;0.93;;
12129;SDS011;6128;59.340;18.040;2023-08-08T01:57:47;2.13;;;0.57;;
12129;SDS011;6128;59.340;18.040;2023-08-08T02:00:14;1.40;;;0.50;;
12129;SDS011;6128;59.340;18.040;2023-08-08T02:02:41;2.57;;;0.70;;
12129;SDS011;6128;59.340;18.040;2023-08-08T02:05:08;3.53;;;0.80;;
12129;SDS011;6128;59.340;18.040;2023-08-08T02:07:35;3.17;;;0.93;;
12129;SDS011;6128;59.340;18.040;2023-08-08T02:10:02;1.97;;;0.83;;
12129;SDS011;6128;59.340;18.040;2023-08-08T02:12:30;2.20;;;0.93;;
12129;SDS011;6128;59.340;18.040;2023-08-08T02:14:59;1.17;;;0.43;;
12129;SDS011;6128;59.340;18.040;2023-08-08T02:17:26;3.27;;;0.80;;
12129;SDS011;6128;59.340;18.040;2023-08-08T02:19:53;2.90;;;0.67;;
12129;SDS011;6128;59.340;18.040;2023-08-08T02:22:20;2.77;;;0.80;;
12129;SDS011;6128;59.340;18.040;2023-08-08T02:24:48;2.87;;;0.73;;
12129;SDS011;6128;59.340;18.040;2023-08-08T02:27:15;2.40;;;0.80;;
12129;SDS011;6128;59.340;18.040;2023-08-08T02:29:42;1.53;;;0.47;;
12129;SDS011;6128;59.340;18.040;2023-08-08T02:32:11;2.37;;;0.60;;
12129;SDS011;6128;59.340;18.040;2023-08-08T02:34:38;2.80;;;0.83;;
12129;SDS011;6128;59.340;18.040;2023-08-08T02:37:06;1.63;;;0.40;;
12129;SDS011;6128;59.340;18.040;2023-08-08T02:39:33;2.63;;;0.70;;
12129;SDS011;6128;59.340;18.040;2023-08-08T02:42:00;2.20;;;0.80;;
12129;SDS011;6128;59.340;18.040;2023-08-08T02:44:27;1.53;;;0.47;;
12129;SDS011;6128;59.340;18.040;2023-08-08T02:46:54;2.10;;;0.77;;
12129;SDS011;6128;59.340;18.040;2023-08-08T02:49:24;3.03;;;0.87;;
12129;SDS011;6128;59.340;18.040;2023-08-08T02:51:51;2.03;;;0.60;;
12129;SDS011;6128;59.340;18.040;2023-08-08T02:54:18;2.97;;;0.50;;
12129;SDS011;6128;59.340;18.040;2023-08-08T02:56:45;3.80;;;0.97;;
12129;SDS011;6128;59.340;18.040;2023-08-08T02:59:12;2.33;;;0.70;;
12129;SDS011;6128;59.340;18.040;2023-08-08T03:01:39;1.97;;;0.63;;
12129;SDS011;6128;59.340;18.040;2023-08-08T03:04:06;2.07;;;0.60;;
12129;SDS011;6128;59.340;18.040;2023-08-08T03:06:35;2.00;;;0.50;;
12129;SDS011;6128;59.340;18.040;2023-08-08T03:09:03;2.07;;;0.73;;
12129;SDS011;6128;59.340;18.040;2023-08-08T03:11:30;1.80;;;0.57;;
12129;SDS011;6128;59.340;18.040;2023-08-08T03:13:57;2.13;;;0.70;;
12129;SDS011;6128;59.340;18.040;2023-08-08T03:16:24;2.83;;;0.70;;
12129;SDS011;6128;59.340;18.040;2023-08-08T03:18:51;2.20;;;0.50;;
12129;SDS011;6128;59.340;18.040;2023-08-08T03:21:18;2.13;;;0.53;;
12129;SDS011;6128;59.340;18.040;2023-08-08T03:23:47;2.23;;;0.60;;
12129;SDS011;6128;59.340;18.040;2023-08-08T03:26:14;1.73;;;0.40;;
12129;SDS011;6128;59.340;18.040;2023-08-08T03:28:41;2.20;;;0.90;;
12129;SDS011;6128;59.340;18.040;2023-08-08T03:31:08;2.83;;;0.80;;
12129;SDS011;6128;59.340;18.040;2023-08-08T03:33:35;2.97;;;0.90;;
12129;SDS011;6128;59.340;18.040;2023-08-08T03:36:02;1.50;;;0.40;;
12129;SDS011;6128;59.340;18.040;2023-08-08T03:38:29;2.13;;;0.70;;
12129;SDS011;6128;59.340;18.040;2023-08-08T03:40:58;1.23;;;0.57;;
12129;SDS011;6128;59.340;18.040;2023-08-08T03:43:25;2.00;;;0.53;;
12129;SDS011;6128;59.340;18.040;2023-08-08T03:45:52;2.00;;;0.60;;
12129;SDS011;6128;59.340;18.040;2023-08-08T03:48:22;1.77;;;0.87;;
12129;SDS011;6128;59.340;18.040;2023-08-08T03:50:49;1.93;;;0.57;;
12129;SDS011;6128;59.340;18.040;2023-08-08T03:53:16;2.17;;;0.80;;
12129;SDS011;6128;59.340;18.040;2023-08-08T03:55:43;2.07;;;0.50;;
12129;SDS011;6128;59.340;18.040;2023-08-08T03:58:12;2.10;;;0.83;;
12129;SDS011;6128;59.340;18.040;2023-08-08T04:00:39;1.97;;;0.40;;
12129;SDS011;6128;59.340;18.040;2023-08-08T04:03:11;2.40;;;0.70;;
12129;SDS011;6128;59.340;18.040;2023-08-08T04:05:39;3.43;;;0.90;;
12129;SDS011;6128;59.340;18.040;2023-08-08T04:08:06;2.23;;;0.60;;
12129;SDS011;6128;59.340;18.040;2023-08-08T04:10:33;1.57;;;0.60;;
12129;SDS011;6128;59.340;18.040;2023-08-08T04:13:00;2.13;;;0.60;;
12129;SDS011;6128;59.340;18.040;2023-08-08T04:15:29;0.67;;;0.47;;
12129;SDS011;6128;59.340;18.040;2023-08-08T04:17:56;1.13;;;0.60;;
12129;SDS011;6128;59.340;18.040;2023-08-08T04:20:23;1.80;;;0.50;;
12129;SDS011;6128;59.340;18.040;2023-08-08T04:22:50;1.43;;;0.40;;
12129;SDS011;6128;59.340;18.040;2023-08-08T04:25:17;1.03;;;0.40;;
12129;SDS011;6128;59.340;18.040;2023-08-08T04:27:45;0.87;;;0.53;;
12129;SDS011;6128;59.340;18.040;2023-08-08T04:30:13;1.57;;;0.53;;
12129;SDS011;6128;59.340;18.040;2023-08-08T04:32:41;1.07;;;0.50;;
12129;SDS011;6128;59.340;18.040;2023-08-08T04:35:08;1.70;;;0.63;;
12129;SDS011;6128;59.340;18.040;2023-08-08T04:37:35;0.93;;;0.40;;
12129;SDS011;6128;59.340;18.040;2023-08-08T04:40:03;2.20;;;0.37;;
12129;SDS011;6128;59.340;18.040;2023-08-08T04:42:30;0.93;;;0.60;;
12129;SDS011;6128;59.340;18.040;2023-08-08T04:44:58;0.50;;;0.43;;
12129;SDS011;6128;59.340;18.040;2023-08-08T04:47:25;1.20;;;0.40;;
12129;SDS011;6128;59.340;18.040;2023-08-08T04:49:53;0.87;;;0.30;;
12129;SDS011;6128;59.340;18.040;2023-08-08T04:52:20;2.00;;;0.40;;
12129;SDS011;6128;59.340;18.040;2023-08-08T04:54:47;0.90;;;0.40;;
12129;SDS011;6128;59.340;18.040;2023-08-08T04:57:14;0.83;;;0.40;;
12129;SDS011;6128;59.340;18.040;2023-08-08T04:59:41;0.57;;;0.27;;
12129;SDS011;6128;59.340;18.040;2023-08-08T05:02:09;0.70;;;0.30;;
12129;SDS011;6128;59.340;18.040;2023-08-08T05:04:36;0.83;;;0.50;;
12129;SDS011;6128;59.340;18.040;2023-08-08T05:07:04;0.60;;;0.20;;
12129;SDS011;6128;59.340;18.040;2023-08-08T05:09:32;0.50;;;0.30;;
12129;SDS011;6128;59.340;18.040;2023-08-08T05:11:59;0.67;;;0.30;;
12129;SDS011;6128;59.340;18.040;2023-08-08T05:14:26;1.00;;;0.57;;
12129;SDS011;6128;59.340;18.040;2023-08-08T05:16:53;0.47;;;0.30;;
12129;SDS011;6128;59.340;18.040;2023-08-08T05:19:20;0.53;;;0.20;;
12129;SDS011;6128;59.340;18.040;2023-08-08T05:21:47;0.77;;;0.27;;
12129;SDS011;6128;59.340;18.040;2023-08-08T05:24:15;0.97;;;0.30;;
12129;SDS011;6128;59.340;18.040;2023-08-08T05:26:42;1.63;;;0.57;;
12129;SDS011;6128;59.340;18.040;2023-08-08T05:29:09;0.70;;;0.20;;
12129;SDS011;6128;59.340;18.040;2023-08-08T05:31:37;0.83;;;0.20;;
12129;SDS011;6128;59.340;18.040;2023-08-08T05:34:04;0.77;;;0.30;;
12129;SDS011;6128;59.340;18.040;2023-08-08T05:36:31;1.00;;;0.47;;
12129;SDS011;6128;59.340;18.040;2023-08-08T05:38:58;0.50;;;0.20;;
12129;SDS011;6128;59.340;18.040;2023-08-08T05:41:26;0.57;;;0.20;;
12129;SDS011;6128;59.340;18.040;2023-08-08T05:43:53;1.27;;;0.20;;
12129;SDS011;6128;59.340;18.040;2023-08-08T05:46:21;0.60;;;0.30;;
12129;SDS011;6128;59.340;18.040;2023-08-08T05:48:48;1.00;;;0.20;;
12129;SDS011;6128;59.340;18.040;2023-08-08T05:51:15;1.33;;;0.30;;
12129;SDS011;6128;59.340;18.040;2023-08-08T05:53:42;0.30;;;0.30;;
12129;SDS011;6128;59.340;18.040;2023-08-08T05:56:09;1.03;;;0.40;;
12129;SDS011;6128;59.340;18.040;2023-08-08T05:58:38;0.50;;;0.30;;
12129;SDS011;6128;59.340;18.040;2023-08-08T06:01:05;0.33;;;0.30;;
12129;SDS011;6128;59.340;18.040;2023-08-08T06:03:34;0.30;;;0.30;;
12129;SDS011;6128;59.340;18.040;2023-08-08T06:06:02;0.73;;;0.50;;
12129;SDS011;6128;59.340;18.040;2023-08-08T06:08:30;0.40;;;0.23;;
12129;SDS011;6128;59.340;18.040;2023-08-08T06:10:57;1.00;;;0.43;;
12129;SDS011;6128;59.340;18.040;2023-08-08T06:13:24;0.60;;;0.30;;
12129;SDS011;6128;59.340;18.040;2023-08-08T06:15:52;0.60;;;0.43;;
12129;SDS011;6128;59.340;18.040;2023-08-08T06:18:19;2.70;;;2.10;;
12129;SDS011;6128;59.340;18.040;2023-08-08T06:20:46;0.20;;;0.20;;
12129;SDS011;6128;59.340;18.040;2023-08-08T06:23:14;0.60;;;0.20;;
12129;SDS011;6128;59.340;18.040;2023-08-08T06:25:41;0.53;;;0.20;;
12129;SDS011;6128;59.340;18.040;2023-08-08T06:28:08;0.70;;;0.20;;
12129;SDS011;6128;59.340;18.040;2023-08-08T06:30:36;0.60;;;0.30;;
12129;SDS011;6128;59.340;18.040;2023-08-08T06:33:05;0.30;;;0.30;;
12129;SDS011;6128;59.340;18.040;2023-08-08T06:35:32;0.43;;;0.10;;
12129;SDS011;6128;59.340;18.040;2023-08-08T06:37:59;0.20;;;0.10;;
12129;SDS011;6128;59.340;18.040;2023-08-08T06:40:27;0.33;;;0.20;;
12129;SDS011;6128;59.340;18.040;2023-08-08T06:42:54;0.30;;;0.20;;
12129;SDS011;6128;59.340;18.040;2023-08-08T06:45:21;0.27;;;0.20;;
12129;SDS011;6128;59.340;18.040;2023-08-08T06:47:48;0.40;;;0.23;;
12129;SDS011;6128;59.340;18.040;2023-08-08T06:50:17;0.40;;;0.40;;
12129;SDS011;6128;59.340;18.040;2023-08-08T06:52:44;0.63;;;0.40;;
12129;SDS011;6128;59.340;18.040;2023-08-08T06:55:11;1.17;;;0.30;;
12129;SDS011;6128;59.340;18.040;2023-08-08T06:57:38;0.40;;;0.20;;
12129;SDS011;6128;59.340;18.040;2023-08-08T07:00:05;1.03;;;0.30;;
12129;SDS011;6128;59.340;18.040;2023-08-08T07:02:34;1.07;;;0.20;;
12129;SDS011;6128;59.340;18.040;2023-08-08T07:05:01;0.60;;;0.40;;
12129;SDS011;6128;59.340;18.040;2023-08-08T07:07:30;0.60;;;0.40;;
12129;SDS011;6128;59.340;18.040;2023-08-08T07:09:58;0.63;;;0.27;;
12129;SDS011;6128;59.340;18.040;2023-08-08T07:12:25;1.53;;;1.30;;
12129;SDS011;6128;59.340;18.040;2023-08-08T07:14:52;0.33;;;0.30;;
12129;SDS011;6128;59.340;18.040;2023-08-08T07:17:20;0.37;;;0.30;;
12129;SDS011;6128;59.340;18.040;2023-08-08T07:19:47;0.53;;;0.40;;
12129;SDS011;6128;59.340;18.040;2023-08-08T07:22:14;0.20;;;0.20;;
12129;SDS011;6128;59.340;18.040;2023-08-08T07:24:42;1.30;;;0.30;;
12129;SDS011;6128;59.340;18.040;2023-08-08T07:27:09;0.50;;;0.40;;
12129;SDS011;6128;59.340;18.040;2023-08-08T07:29:36;0.40;;;0.40;;
12129;SDS011;6128;59.340;18.040;2023-08-08T07:32:03;0.50;;;0.40;;
12129;SDS011;6128;59.340;18.040;2023-08-08T07:34:31;0.50;;;0.50;;
12129;SDS011;6128;59.340;18.040;2023-08-08T07:36:58;0.93;;;0.70;;
12129;SDS011;6128;59.340;18.040;2023-08-08T07:39:25;1.47;;;1.00;;
12129;SDS011;6128;59.340;18.040;2023-08-08T07:41:54;0.70;;;0.70;;
12129;SDS011;6128;59.340;18.040;2023-08-08T07:44:22;1.40;;;0.90;;
12129;SDS011;6128;59.340;18.040;2023-08-08T07:46:49;1.87;;;0.80;;
12129;SDS011;6128;59.340;18.040;2023-08-08T07:49:16;1.63;;;0.60;;
12129;SDS011;6128;59.340;18.040;2023-08-08T07:51:44;0.87;;;0.70;;
12129;SDS011;6128;59.340;18.040;2023-08-08T07:54:11;1.03;;;0.40;;
12129;SDS011;6128;59.340;18.040;2023-08-08T07:56:38;0.63;;;0.40;;
12129;SDS011;6128;59.340;18.040;2023-08-08T07:59:06;1.43;;;0.50;;
12129;SDS011;6128;59.340;18.040;2023-08-08T08:01:36;1.50;;;0.57;;
12129;SDS011;6128;59.340;18.040;2023-08-08T08:04:04;0.83;;;0.40;;
12129;SDS011;6128;59.340;18.040;2023-08-08T08:06:31;1.70;;;0.50;;
12129;SDS011;6128;59.340;18.040;2023-08-08T08:08:58;0.50;;;0.50;;
12129;SDS011;6128;59.340;18.040;2023-08-08T08:11:25;0.30;;;0.30;;
12129;SDS011;6128;59.340;18.040;2023-08-08T08:13:52;0.63;;;0.50;;
12129;SDS011;6128;59.340;18.040;2023-08-08T08:16:21;0.50;;;0.50;;
12129;SDS011;6128;59.340;18.040;2023-08-08T08:18:48;0.50;;;0.37;;
12129;SDS011;6128;59.340;18.040;2023-08-08T08:21:15;0.97;;;0.40;;
12129;SDS011;6128;59.340;18.040;2023-08-08T08:23:42;1.50;;;0.57;;
12129;SDS011;6128;59.340;18.040;2023-08-08T08:26:10;1.80;;;0.60;;
12129;SDS011;6128;59.340;18.040;2023-08-08T08:28:37;1.60;;;1.07;;
12129;SDS011;6128;59.340;18.040;2023-08-08T08:31:05;1.07;;;0.53;;
12129;SDS011;6128;59.340;18.040;2023-08-08T08:33:37;1.53;;;0.43;;
12129;SDS011;6128;59.340;18.040;2023-08-08T08:36:04;0.57;;;0.57;;
12129;SDS011;6128;59.340;18.040;2023-08-08T08:38:32;0.40;;;0.40;;
12129;SDS011;6128;59.340;18.040;2023-08-08T08:40:59;0.33;;;0.30;;
12129;SDS011;6128;59.340;18.040;2023-08-08T08:43:29;0.77;;;0.53;;
12129;SDS011;6128;59.340;18.040;2023-08-08T08:45:58;1.77;;;0.97;;
12129;SDS011;6128;59.340;18.040;2023-08-08T08:48:27;0.53;;;0.50;;
12129;SDS011;6128;59.340;18.040;2023-08-08T08:50:56;1.30;;;0.60;;
12129;SDS011;6128;59.340;18.040;2023-08-08T08:53:24;0.93;;;0.30;;
12129;SDS011;6128;59.340;18.040;2023-08-08T08:55:51;0.60;;;0.40;;
12129;SDS011;6128;59.340;18.040;2023-08-08T08:58:22;1.53;;;0.37;;
12129;SDS011;6128;59.340;18.040;2023-08-08T09:00:51;0.50;;;0.30;;
12129;SDS011;6128;59.340;18.040;2023-08-08T09:03:18;0.67;;;0.30;;
12129;SDS011;6128;59.340;18.040;2023-08-08T09:05:45;0.40;;;0.17;;
12129;SDS011;6128;59.340;18.040;2023-08-08T09:08:14;0.13;;;0.13;;
12129;SDS011;6128;59.340;18.040;2023-08-08T09:10:42;0.37;;;0.20;;
12129;SDS011;6128;59.340;18.040;2023-08-08T09:13:09;0.97;;;0.30;;
12129;SDS011;6128;59.340;18.040;2023-08-08T09:15:37;0.10;;;0.10;;
12129;SDS011;6128;59.340;18.040;2023-08-08T09:18:04;0.40;;;0.10;;
12129;SDS011;6128;59.340;18.040;2023-08-08T09:20:34;0.50;;;0.10;;
12129;SDS011;6128;59.340;18.040;2023-08-08T09:23:01;0.00;;;0.00;;
12129;SDS011;6128;59.340;18.040;2023-08-08T09:25:29;0.23;;;0.10;;
12129;SDS011;6128;59.340;18.040;2023-08-08T09:27:56;0.20;;;0.10;;
12129;SDS011;6128;59.340;18.040;2023-08-08T09:30:24;0.40;;;0.13;;
12129;SDS011;6128;59.340;18.040;2023-08-08T09:32:57;0.10;;;0.10;;
12129;SDS011;6128;59.340;18.040;2023-08-08T09:35:24;1.43;;;0.23;;
12129;SDS011;6128;59.340;18.040;2023-08-08T09:37:52;0.83;;;0.50;;
12129;SDS011;6128;59.340;18.040;2023-08-08T09:40:20;0.20;;;0.20;;
12129;SDS011;6128;59.340;18.040;2023-08-08T09:42:50;0.20;;;0.20;;
12129;SDS011;6128;59.340;18.040;2023-08-08T09:45:18;0.70;;;0.40;;
12129;SDS011;6128;59.340;18.040;2023-08-08T09:47:45;1.20;;;0.30;;
12129;SDS011;6128;59.340;18.040;2023-08-08T09:50:12;0.20;;;0.20;;
12129;SDS011;6128;59.340;18.040;2023-08-08T09:52:40;0.30;;;0.30;;
12129;SDS011;6128;59.340;18.040;2023-08-08T09:55:08;0.60;;;0.40;;
12129;SDS011;6128;59.340;18.040;2023-08-08T09:57:40;0.40;;;0.40;;
12129;SDS011;6128;59.340;18.040;2023-08-08T10:00:11;2.83;;;1.87;;
12129;SDS011;6128;59.340;18.040;2023-08-08T10:02:41;2.67;;;1.20;;
12129;SDS011;6128;59.340;18.040;2023-08-08T10:05:10;1.50;;;0.70;;
12129;SDS011;6128;59.340;18.040;2023-08-08T10:07:39;1.70;;;1.10;;
12129;SDS011;6128;59.340;18.040;2023-08-08T10:10:09;0.60;;;0.40;;
12129;SDS011;6128;59.340;18.040;2023-08-08T10:12:37;1.30;;;0.50;;
12129;SDS011;6128;59.340;18.040;2023-08-08T10:15:06;0.80;;;0.63;;
12129;SDS011;6128;59.340;18.040;2023-08-08T10:17:36;1.07;;;0.40;;
12129;SDS011;6128;59.340;18.040;2023-08-08T10:20:08;0.77;;;0.30;;
12129;SDS011;6128;59.340;18.040;2023-08-08T10:22:36;0.20;;;0.20;;
12129;SDS011;6128;59.340;18.040;2023-08-08T10:25:07;0.37;;;0.30;;
12129;SDS011;6128;59.340;18.040;2023-08-08T10:27:35;1.13;;;0.30;;
12129;SDS011;6128;59.340;18.040;2023-08-08T10:30:08;1.47;;;0.33;;
12129;SDS011;6128;59.340;18.040;2023-08-08T10:32:42;0.70;;;0.30;;
12129;SDS011;6128;59.340;18.040;2023-08-08T10:35:11;1.40;;;0.30;;
12129;SDS011;6128;59.340;18.040;2023-08-08T10:37:39;0.50;;;0.27;;
12129;SDS011;6128;59.340;18.040;2023-08-08T10:40:07;0.40;;;0.20;;
12129;SDS011;6128;59.340;18.040;2023-08-08T10:42:42;0.43;;;0.40;;
12129;SDS011;6128;59.340;18.040;2023-08-08T10:45:12;0.60;;;0.20;;
12129;SDS011;6128;59.340;18.040;2023-08-08T10:47:43;0.73;;;0.30;;
12129;SDS011;6128;59.340;18.040;2023-08-08T10:50:11;1.03;;;0.20;;
12129;SDS011;6128;59.340;18.040;2023-08-08T10:52:50;0.37;;;0.20;;
12129;SDS011;6128;59.340;18.040;2023-08-08T10:55:18;0.73;;;0.10;;
12129;SDS011;6128;59.340;18.040;2023-08-08T10:57:52;0.53;;;0.20;;
12129;SDS011;6128;59.340;18.040;2023-08-08T11:00:25;0.77;;;0.37;;
12129;SDS011;6128;59.340;18.040;2023-08-08T11:02:56;0.63;;;0.23;;
12129;SDS011;6128;59.340;18.040;2023-08-08T11:05:24;0.30;;;0.10;;
12129;SDS011;6128;59.340;18.040;2023-08-08T11:07:53;0.97;;;0.10;;
12129;SDS011;6128;59.340;18.040;2023-08-08T11:10:22;0.23;;;0.10;;
12129;SDS011;6128;59.340;18.040;2023-08-08T11:12:53;0.63;;;0.30;;
12129;SDS011;6128;59.340;18.040;2023-08-08T11:15:22;0.50;;;0.27;;
12129;SDS011;6128;59.340;18.040;2023-08-08T11:17:49;1.33;;;0.30;;
12129;SDS011;6128;59.340;18.040;2023-08-08T11:20:19;1.13;;;0.30;;
12129;SDS011;6128;59.340;18.040;2023-08-08T11:22:50;0.93;;;0.30;;
12129;SDS011;6128;59.340;18.040;2023-08-08T11:25:18;0.83;;;0.10;;
12129;SDS011;6128;59.340;18.040;2023-08-08T11:27:49;1.60;;;0.50;;
12129;SDS011;6128;59.340;18.040;2023-08-08T11:30:17;3.40;;;1.00;;
12129;SDS011;6128;59.340;18.040;2023-08-08T11:32:45;1.17;;;0.50;;
12129;SDS011;6128;59.340;18.040;2023-08-08T11:35:15;1.60;;;0.30;;
12129;SDS011;6128;59.340;18.040;2023-08-08T11:37:45;0.23;;;0.20;;
12129;SDS011;6128;59.340;18.040;2023-08-08T11:40:12;2.70;;;0.70;;
12129;SDS011;6128;59.340;18.040;2023-08-08T11:42:41;0.53;;;0.20;;
12129;SDS011;6128;59.340;18.040;2023-08-08T11:45:10;0.37;;;0.20;;
12129;SDS011;6128;59.340;18.040;2023-08-08T11:47:38;1.67;;;0.57;;
12129;SDS011;6128;59.340;18.040;2023-08-08T11:50:06;1.37;;;0.50;;
12129;SDS011;6128;59.340;18.040;2023-08-08T11:52:35;0.57;;;0.30;;
12129;SDS011;6128;59.340;18.040;2023-08-08T11:55:07;0.97;;;0.40;;
12129;SDS011;6128;59.340;18.040;2023-08-08T11:57:35;1.77;;;0.57;;
12129;SDS011;6128;59.340;18.040;2023-08-08T12:00:03;0.50;;;0.30;;
12129;SDS011;6128;59.340;18.040;2023-08-08T12:02:32;0.40;;;0.20;;
12129;SDS011;6128;59.340;18.040;2023-08-08T12:05:03;1.57;;;0.40;;
12129;SDS011;6128;59.340;18.040;2023-08-08T12:07:31;0.73;;;0.23;;
12129;SDS011;6128;59.340;18.040;2023-08-08T12:09:59;0.87;;;0.27;;
12129;SDS011;6128;59.340;18.040;2023-08-08T12:12:28;1.40;;;0.33;;
12129;SDS011;6128;59.340;18.040;2023-08-08T12:14:57;1.03;;;0.33;;
12129;SDS011;6128;59.340;18.040;2023-08-08T12:17:28;0.77;;;0.40;;
12129;SDS011;6128;59.340;18.040;2023-08-08T12:20:02;1.20;;;0.40;;
12129;SDS011;6128;59.340;18.040;2023-08-08T12:22:35;0.87;;;0.40;;
12129;SDS011;6128;59.340;18.040;2023-08-08T12:25:04;1.23;;;0.40;;
12129;SDS011;6128;59.340;18.040;2023-08-08T12:27:35;0.97;;;0.40;;
12129;SDS011;6128;59.340;18.040;2023-08-08T12:30:04;0.60;;;0.20;;
12129;SDS011;6128;59.340;18.040;2023-08-08T12:32:33;0.93;;;0.50;;
12129;SDS011;6128;59.340;18.040;2023-08-08T12:35:00;1.10;;;0.43;;
12129;SDS011;6128;59.340;18.040;2023-08-08T12:37:27;1.07;;;0.50;;
12129;SDS011;6128;59.340;18.040;2023-08-08T12:39:54;0.70;;;0.27;;
12129;SDS011;6128;59.340;18.040;2023-08-08T12:42:22;1.50;;;0.30;;
12129;SDS011;6128;59.340;18.040;2023-08-08T12:44:53;0.97;;;0.50;;
12129;SDS011;6128;59.340;18.040;2023-08-08T12:47:22;1.80;;;0.27;;
12129;SDS011;6128;59.340;18.040;2023-08-08T12:49:49;0.80;;;0.50;;
12129;SDS011;6128;59.340;18.040;2023-08-08T12:52:16;2.07;;;0.60;;
12129;SDS011;6128;59.340;18.040;2023-08-08T12:54:43;1.63;;;0.50;;
12129;SDS011;6128;59.340;18.040;2023-08-08T12:57:11;2.07;;;0.60;;
12129;SDS011;6128;59.340;18.040;2023-08-08T12:59:38;1.57;;;0.50;;
12129;SDS011;6128;59.340;18.040;2023-08-08T13:02:07;1.20;;;0.30;;
12129;SDS011;6128;59.340;18.040;2023-08-08T13:04:49;1.30;;;0.40;;
12129;SDS011;6128;59.340;18.040;2023-08-08T13:07:16;1.27;;;0.93;;
12129;SDS011;6128;59.340;18.040;2023-08-08T13:09:45;1.73;;;0.70;;
12129;SDS011;6128;59.340;18.040;2023-08-08T13:12:12;2.87;;;0.50;;
12129;SDS011;6128;59.340;18.040;2023-08-08T13:14:39;1.43;;;0.70;;
12129;SDS011;6128;59.340;18.040;2023-08-08T13:17:08;0.90;;;0.30;;
12129;SDS011;6128;59.340;18.040;2023-08-08T13:19:35;1.67;;;0.53;;
12129;SDS011;6128;59.340;18.040;2023-08-08T13:22:02;1.27;;;0.50;;
12129;SDS011;6128;59.340;18.040;2023-08-08T13:24:30;0.50;;;0.20;;
12129;SDS011;6128;59.340;18.040;2023-08-08T13:26:57;1.17;;;0.60;;
12129;SDS011;6128;59.340;18.040;2023-08-08T13:29:24;3.00;;;0.67;;
12129;SDS011;6128;59.340;18.040;2023-08-08T13:31:51;1.87;;;0.57;;
12129;SDS011;6128;59.340;18.040;2023-08-08T13:34:21;2.70;;;0.80;;
12129;SDS011;6128;59.340;18.040;2023-08-08T13:36:49;2.07;;;0.70;;
12129;SDS011;6128;59.340;18.040;2023-08-08T13:39:16;2.10;;;0.90;;
12129;SDS011;6128;59.340;18.040;2023-08-08T13:41:44;1.93;;;0.53;;
12129;SDS011;6128;59.340;18.040;2023-08-08T13:44:11;1.20;;;0.50;;
12129;SDS011;6128;59.340;18.040;2023-08-08T13:46:38;1.90;;;0.50;;
12129;SDS011;6128;59.340;18.040;2023-08-08T13:49:05;2.50;;;0.60;;
12129;SDS011;6128;59.340;18.040;2023-08-08T13:51:33;2.37;;;0.50;;
12129;SDS011;6128;59.340;18.040;2023-08-08T13:54:00;2.30;;;0.50;;
12129;SDS011;6128;59.340;18.040;2023-08-08T13:56:28;1.70;;;0.47;;
12129;SDS011;6128;59.340;18.040;2023-08-08T13:58:55;2.10;;;0.50;;
12129;SDS011;6128;59.340;18.040;2023-08-08T14:01:22;3.03;;;0.60;;
12129;SDS011;6128;59.340;18.040;2023-08-08T14:03:49;1.83;;;0.67;;
12129;SDS011;6128;59.340;18.040;2023-08-08T14:06:18;1.10;;;0.40;;
12129;SDS011;6128;59.340;18.040;2023-08-08T14:08:47;1.63;;;0.50;;
12129;SDS011;6128;59.340;18.040;2023-08-08T14:11:14;1.43;;;0.70;;
12129;SDS011;6128;59.340;18.040;2023-08-08T14:13:41;1.60;;;0.33;;
12129;SDS011;6128;59.340;18.040;2023-08-08T14:16:11;1.73;;;0.30;;
12129;SDS011;6128;59.340;18.040;2023-08-08T14:18:38;1.77;;;0.50;;
12129;SDS011;6128;59.340;18.040;2023-08-08T14:21:08;1.30;;;0.50;;
12129;SDS011;6128;59.340;18.040;2023-08-08T14:23:35;1.13;;;0.40;;
12129;SDS011;6128;59.340;18.040;2023-08-08T14:26:05;1.13;;;0.40;;
12129;SDS011;6128;59.340;18.040;2023-08-08T14:28:32;4.27;;;0.60;;
12129;SDS011;6128;59.340;18.040;2023-08-08T14:30:59;1.90;;;0.77;;
12129;SDS011;6128;59.340;18.040;2023-08-08T14:33:27;2.43;;;0.57;;
12129;SDS011;6128;59.340;18.040;2023-08-08T14:35:54;2.10;;;0.80;;
12129;SDS011;6128;59.340;18.040;2023-08-08T14:40:50;2.23;;;0.80;;
12129;SDS011;6128;59.340;18.040;2023-08-08T14:43:19;2.83;;;0.93;;
12129;SDS011;6128;59.340;18.040;2023-08-08T14:45:48;3.30;;;1.10;;
12129;SDS011;6128;59.340;18.040;2023-08-08T14:48:15;2.97;;;0.57;;
12129;SDS011;6128;59.340;18.040;2023-08-08T14:50:42;2.23;;;0.50;;
12129;SDS011;6128;59.340;18.040;2023-08-08T14:53:10;2.30;;;0.60;;
12129;SDS011;6128;59.340;18.040;2023-08-08T14:55:38;2.00;;;0.67;;